Terminal Aerodrome Forecast
Issued by NWS Wichita, KS

Home | Current Version | Previous Version | Text Only | Print | Product List | Glossary Off
Versions: 1 2 3 4 5 6 7 8 9 10 11 12 13 14 15 16 17 18

000
FTUS43 KICT 181700
TAFICT
TAF
KICT 181720Z 1818/1918 02011KT P6SM BKN250
     FM182300 09006KT P6SM BKN250
     FM190600 13006KT P6SM BKN150
     FM191400 18008KT P6SM BKN150=

USA.gov is the U.S. government's official web portal to all federal, state and local government web resources and services.